Williamsville, NY (14221)

12:43 PM EDT on August 25, 2016 (GMT -0400)
Transit and Renaissance Williamsville, NY | | Change Station

Elev 610 ft 42.99 °N, 78.70 °W | Updated 14 seconds ago

Mostly Cloudy
Mostly Cloudy
77.1 °F
Feels Like 78 °F
N
0.0
Wind Variable Wind from SW
Gusts 1.0 mph

Today
High -- | Low -- °F
--% Chance of Precip.
Yesterday
High -- | Low -- °F
Precip. -- in
Pressure 29.96 in
Visibility 10.0 miles
Clouds Few 1000 ft
Scattered Clouds 1600 ft
Mostly Cloudy 3400 ft
Heat Index 78 °F
Dew Point 76 °F
Humidity 97%
Rainfall 0.99 in
Snow Depth Not available.
6:32 AM 8:00 PM
Last Quarter, 44% visible
METAR KBUF 251554Z 21011KT 10SM FEW010 SCT016 BKN034 26/22 A2998 RMK AO2 SLP145 T02560222
Pressure 29.96 in
Visibility 10.0 miles
Clouds Few 1000 ft
Scattered Clouds 1600 ft
Mostly Cloudy 3400 ft
Heat Index 78 °F
Dew Point 76 °F
Humidity 97%
Rainfall 0.99 in
Snow Depth Not available.
6:32 AM 8:00 PM
Last Quarter, 44% visible
METAR KBUF 251554Z 21011KT 10SM FEW010 SCT016 BKN034 26/22 A2998 RMK AO2 SLP145 T02560222

10-Day Weather Forecast

Almanac

Astronomy

Aug. 25, 2016 Rise Set
Actual Time
Civil Twilight
Nautical Twilight
Astronomical Twilight
Moon
Length of Visible Light
Length of Day
Tomorrow will be .
, % of the Moon is Illuminated

Today's Extremes

State Highs State Lows

Community

WunderPhotos

Upload Photos

1,934,869 photos uploaded!

WunderBlog® & News

Nearby

Air Quality

  Air Quality AQ Index Pollutant
Not available.

Snow Depth

Station Depth Elevation

Earthquake Activity

City Distance Mag. Time & Date
Minimum magnitude displayed is 2.5.

Coastal Water Temperatures

Place Temperature

Stations

Nearby Weather Stations

Station Location Temp. Windchill Dew Point Humidity Wind Precip. Elev Updated Type
                   

Watches & Warnings

There are currently no watches in effect.